Time;durP1;ratioP1;P1;durP2;ratioP2;P2;SDS_P1;SDS_P2;PMS_P1;PMS_P2;Temp;Humidity;BMP_temperature;BMP_pressure;BME280_temperature;BME280_humidity;BME280_pressure;Samples;Min_cycle;Max_cycle;Signal;HPM_P1;HPM_P2
2021/06/06 00:00:37;;;;;;;19.42;13.07;;;16.30;99.90;;;;;;4143690;28;20084;-83
2021/06/06 00:02:38;;;;;;;;;;;16.30;99.90;;;;;;4143533;28;20046;-83
2021/06/06 00:04:44;;;;;;;18.27;12.93;;;16.30;99.90;;;;;;4127786;28;19923;-83
2021/06/06 00:06:46;;;;;;;23.20;14.82;;;16.30;99.90;;;;;;4126292;28;20381;-83
2021/06/06 00:08:47;;;;;;;21.90;13.23;;;16.20;99.90;;;;;;4144012;28;20033;-83
2021/06/06 00:10:49;;;;;;;21.20;12.52;;;16.20;99.90;;;;;;4144235;28;20045;-83
2021/06/06 00:12:49;;;;;;;16.25;12.00;;;16.10;99.90;;;;;;4128088;28;20035;-83
2021/06/06 00:14:50;;;;;;;22.73;14.65;;;16.10;99.90;;;;;;4126559;28;20126;-83
2021/06/06 00:16:55;;;;;;;17.27;12.73;;;16.10;99.90;;;;;;4126469;28;20049;-83
2021/06/06 00:18:56;;;;;;;18.02;13.05;;;16.20;99.90;;;;;;4145032;28;20442;-82
2021/06/06 00:20:57;;;;;;;19.02;11.85;;;16.10;99.90;;;;;;4142897;28;20041;-82
2021/06/06 00:22:58;;;;;;;15.18;11.32;;;16.10;99.90;;;;;;4125736;28;20060;-82
2021/06/06 00:24:59;;;;;;;20.13;13.05;;;16.20;99.90;;;;;;4142568;28;20049;-82
2021/06/06 00:27:00;;;;;;;18.45;12.07;;;16.20;99.90;;;;;;4126791;28;20038;-83
2021/06/06 00:29:03;;;;;;;18.15;12.57;;;16.20;99.90;;;;;;4147588;28;20240;-83
2021/06/06 00:31:06;;;;;;;20.33;13.15;;;16.10;99.90;;;;;;4127561;28;20045;-83
2021/06/06 00:33:07;;;;;;;20.02;13.38;;;16.10;99.90;;;;;;4140879;28;20073;-83
2021/06/06 00:35:10;;;;;;;21.00;13.32;;;16.20;99.90;;;;;;4145466;28;20510;-83
2021/06/06 00:37:11;;;;;;;19.55;12.00;;;16.20;99.90;;;;;;4142673;28;20051;-83
2021/06/06 00:39:12;;;;;;;16.27;11.25;;;16.20;99.90;;;;;;4145457;28;20042;-83
2021/06/06 00:41:15;;;;;;;17.27;11.90;;;16.20;99.90;;;;;;4128557;28;20108;-83
2021/06/06 00:43:17;;;;;;;17.08;12.35;;;16.20;99.90;;;;;;4142520;28;20030;-83
2021/06/06 00:45:22;;;;;;;15.88;11.27;;;16.20;99.90;;;;;;4129772;28;20046;-83
2021/06/06 00:47:24;;;;;;;17.05;11.27;;;16.20;99.90;;;;;;4142445;28;20110;-83
2021/06/06 00:49:25;;;;;;;14.32;10.50;;;16.20;99.90;;;;;;4141742;28;20039;-82
2021/06/06 00:51:37;;;;;;;14.40;9.90;;;16.30;99.90;;;;;;4127202;28;20577;-82
2021/06/06 00:53:44;;;;;;;18.02;12.20;;;16.30;99.90;;;;;;4124956;28;20089;-82
2021/06/06 00:55:45;;;;;;;18.40;13.07;;;16.40;99.90;;;;;;4144677;28;20033;-82
2021/06/06 00:57:47;;;;;;;21.38;14.98;;;16.40;99.90;;;;;;4125841;28;20068;-82
2021/06/06 01:00:03;;;;;;;22.57;13.33;;;16.30;99.90;;;;;;4127237;28;20038;-82
2021/06/06 01:02:06;;;;;;;23.40;14.07;;;16.30;99.90;;;;;;4141303;28;20427;-82
2021/06/06 01:04:07;;;;;;;18.52;12.45;;;16.30;99.90;;;;;;4145218;28;20061;-82
2021/06/06 01:06:13;;;;;;;18.50;13.25;;;16.20;99.90;;;;;;4124394;28;20045;-82
2021/06/06 01:08:17;;;;;;;22.90;13.23;;;16.30;99.90;;;;;;4143344;28;20065;-83
2021/06/06 01:10:18;;;;;;;19.92;12.45;;;16.20;99.90;;;;;;4143173;28;20042;-83
2021/06/06 01:12:31;;;;;;;20.00;12.65;;;16.20;99.90;;;;;;4125913;28;20058;-83
2021/06/06 01:14:40;;;;;;;22.10;13.77;;;16.20;99.90;;;;;;4141507;28;20026;-83
2021/06/06 01:16:57;;;;;;;21.13;13.88;;;16.20;99.90;;;;;;4125978;28;20046;-83
2021/06/06 01:19:01;;;;;;;22.30;13.75;;;16.20;99.90;;;;;;4140967;28;20038;-83
2021/06/06 01:21:27;;;;;;;20.88;13.05;;;16.10;99.90;;;;;;4142917;28;20445;-83
2021/06/06 01:23:49;;;;;;;19.35;12.27;;;16.20;99.90;;;;;;4141509;28;20411;-83
2021/06/06 01:25:57;;;;;;;17.35;12.05;;;16.10;99.90;;;;;;4128062;28;20117;-82
2021/06/06 01:28:13;;;;;;;19.70;12.65;;;16.10;99.90;;;;;;4141996;28;20031;-82
2021/06/06 01:30:20;;;;;;;19.17;11.15;;;16.20;99.90;;;;;;4125649;28;20295;-82
2021/06/06 01:32:50;;;;;;;16.73;11.63;;;16.20;99.90;;;;;;4140885;28;20446;-82
2021/06/06 01:35:02;;;;;;;16.88;11.20;;;16.30;99.90;;;;;;4122758;28;20525;-82
2021/06/06 01:37:08;;;;;;;17.73;12.18;;;16.30;99.90;;;;;;4124385;28;20030;-82
2021/06/06 01:39:15;;;;;;;21.05;14.07;;;16.40;99.90;;;;;;4142538;28;20162;-82
2021/06/06 01:41:21;;;;;;;22.10;14.30;;;16.40;99.90;;;;;;4125275;28;20095;-82
2021/06/06 01:43:30;;;;;;;22.50;13.55;;;16.40;99.90;;;;;;4142762;28;20042;-82
2021/06/06 01:45:38;;;;;;;25.40;14.30;;;16.40;99.90;;;;;;4125753;28;20664;-82
2021/06/06 01:47:39;;;;;;;22.38;14.75;;;16.40;99.90;;;;;;4140437;28;20030;-82
2021/06/06 01:49:49;;;;;;;18.05;13.35;;;16.30;99.90;;;;;;4143402;28;20092;-83
2021/06/06 01:51:53;;;;;;;20.98;14.65;;;16.30;99.90;;;;;;4143629;28;20076;-82
2021/06/06 01:53:54;;;;;;;18.75;13.27;;;16.30;99.90;;;;;;4123530;28;20026;-82
2021/06/06 01:55:59;;;;;;;25.50;15.55;;;16.30;99.90;;;;;;4127981;28;20121;-82
2021/06/06 01:58:03;;;;;;;18.58;12.55;;;16.30;99.90;;;;;;4125444;28;20125;-82
2021/06/06 02:00:12;;;;;;;20.40;14.40;;;16.30;99.90;;;;;;4144887;28;20048;-82
2021/06/06 02:02:13;;;;;;;20.60;13.68;;;16.30;99.90;;;;;;4141947;28;20041;-82
2021/06/06 02:04:13;;;;;;;20.67;13.35;;;16.30;99.90;;;;;;4143637;28;20049;-82
2021/06/06 02:06:18;;;;;;;23.73;15.25;;;16.30;99.90;;;;;;4143040;28;20672;-82
2021/06/06 02:08:20;;;;;;;21.40;15.25;;;16.30;99.90;;;;;;4141239;28;20044;-82
2021/06/06 02:10:26;;;;;;;18.92;13.88;;;16.30;99.90;;;;;;4141027;28;20041;-82
2021/06/06 02:12:30;;;;;;;19.15;13.35;;;16.30;99.90;;;;;;4129463;28;20039;-82
2021/06/06 02:14:38;;;;;;;21.83;14.13;;;16.30;99.90;;;;;;4142132;28;20405;-82
2021/06/06 02:16:43;;;;;;;21.38;12.35;;;16.30;99.90;;;;;;4140653;28;20121;-82
2021/06/06 02:18:44;;;;;;;18.60;12.55;;;16.30;99.90;;;;;;4124882;28;20038;-82
2021/06/06 02:20:47;;;;;;;19.63;13.32;;;16.30;99.90;;;;;;4123643;28;20045;-83
2021/06/06 02:22:48;;;;;;;22.58;14.63;;;16.30;99.90;;;;;;4137779;28;20042;-83
2021/06/06 02:24:48;;;;;;;19.30;12.73;;;16.30;99.90;;;;;;4146706;28;20059;-83
2021/06/06 02:27:13;;;;;;;18.25;13.85;;;16.30;99.90;;;;;;4139761;28;20038;-82
2021/06/06 02:29:34;;;;;;;20.52;14.35;;;16.40;99.90;;;;;;4141585;28;20038;-82
2021/06/06 02:31:40;;;;;;;23.98;14.77;;;16.30;99.90;;;;;;4140096;28;20042;-82
2021/06/06 02:34:06;;;;;;;21.30;14.93;;;16.30;99.90;;;;;;4141521;28;20455;-83
2021/06/06 02:36:10;;;;;;;20.48;14.52;;;16.30;99.90;;;;;;4140313;28;20559;-83
2021/06/06 02:38:15;;;;;;;21.75;14.57;;;16.30;99.90;;;;;;4140393;28;20112;-82
2021/06/06 02:40:30;;;;;;;18.33;13.23;;;16.30;99.90;;;;;;4142820;28;20038;-82
2021/06/06 02:42:35;;;;;;;20.88;14.70;;;16.30;99.90;;;;;;4123525;28;20184;-82
2021/06/06 02:44:48;;;;;;;18.38;13.10;;;16.40;99.90;;;;;;4122379;28;20107;-82
2021/06/06 02:46:51;;;;;;;20.73;15.13;;;16.40;99.90;;;;;;4125039;28;20054;-82
2021/06/06 02:48:59;;;;;;;19.67;13.90;;;16.40;99.90;;;;;;4138776;28;20605;-83
2021/06/06 02:51:05;;;;;;;21.30;14.15;;;16.40;99.90;;;;;;4123091;28;20096;-83
2021/06/06 02:53:22;;;;;;;22.38;14.82;;;16.40;99.90;;;;;;4139802;28;20110;-82
2021/06/06 02:55:28;;;;;;;28.38;17.63;;;16.40;99.90;;;;;;4140141;28;20030;-82
2021/06/06 02:57:31;;;;;;;26.80;16.55;;;16.40;99.90;;;;;;4124384;28;20114;-82
2021/06/06 02:59:53;;;;;;;20.02;14.75;;;16.30;99.90;;;;;;4125591;28;20616;-82
2021/06/06 03:01:59;;;;;;;26.27;18.17;;;16.30;99.90;;;;;;4121498;28;20510;-82
2021/06/06 03:04:02;;;;;;;21.63;15.88;;;16.20;99.90;;;;;;4138990;28;20181;-82
2021/06/06 03:06:09;;;;;;;20.08;14.38;;;16.20;99.90;;;;;;4144225;28;20639;-82
2021/06/06 03:08:11;;;;;;;26.50;16.73;;;16.20;99.90;;;;;;4124786;28;20035;-82
2021/06/06 03:10:15;;;;;;;22.73;15.18;;;16.20;99.90;;;;;;4143906;28;20037;-82
2021/06/06 03:12:18;;;;;;;21.05;14.98;;;16.20;99.90;;;;;;4144134;28;20025;-82
2021/06/06 03:14:22;;;;;;;22.70;15.23;;;16.20;99.90;;;;;;4128691;28;20034;-82
2021/06/06 03:16:24;;;;;;;18.50;13.68;;;16.20;99.90;;;;;;4127606;28;20452;-82
2021/06/06 03:18:29;;;;;;;26.42;16.67;;;16.30;99.90;;;;;;4127230;28;20108;-83
2021/06/06 03:20:33;;;;;;;21.08;15.23;;;16.30;99.90;;;;;;4144942;28;20038;-82
2021/06/06 03:22:37;;;;;;;22.20;16.75;;;16.30;99.90;;;;;;4142308;28;20368;-83
2021/06/06 03:24:43;;;;;;;22.20;15.60;;;16.30;99.90;;;;;;4143556;28;20041;-82
2021/06/06 03:26:47;;;;;;;22.77;16.60;;;16.30;99.90;;;;;;4140397;28;20033;-82
2021/06/06 03:28:48;;;;;;;22.83;15.52;;;16.30;99.90;;;;;;4141997;28;20034;-82
2021/06/06 03:30:55;;;;;;;21.85;15.02;;;16.30;99.90;;;;;;4145479;28;20030;-82
2021/06/06 03:32:58;;;;;;;25.40;17.20;;;16.30;99.90;;;;;;4140170;28;20127;-82
2021/06/06 03:34:59;;;;;;;32.03;17.88;;;16.30;99.90;;;;;;4144591;28;20302;-82
2021/06/06 03:36:59;;;;;;;28.48;16.98;;;16.30;99.90;;;;;;4144647;28;20053;-82
2021/06/06 03:39:05;;;;;;;26.85;17.52;;;16.30;99.90;;;;;;4144161;28;20037;-83
2021/06/06 03:41:07;;;;;;;24.63;16.55;;;16.30;99.90;;;;;;4142962;28;20034;-82
2021/06/06 03:43:14;;;;;;;29.73;18.25;;;16.20;99.90;;;;;;4143275;28;20030;-82
2021/06/06 03:45:15;;;;;;;28.77;18.10;;;16.20;99.90;;;;;;4144925;28;20023;-82
2021/06/06 03:47:16;;;;;;;28.95;18.35;;;16.10;99.90;;;;;;4144048;28;20034;-82
2021/06/06 03:49:18;;;;;;;34.90;21.25;;;16.10;99.90;;;;;;4127449;28;20731;-82
2021/06/06 03:51:19;;;;;;;29.02;19.17;;;16.10;99.90;;;;;;4119195;28;20626;-82
2021/06/06 03:53:23;;;;;;;32.38;18.20;;;16.00;99.90;;;;;;4143499;28;20188;-82
2021/06/06 03:55:23;;;;;;;30.45;19.42;;;16.00;99.90;;;;;;4141346;28;20041;-82
2021/06/06 03:57:24;;;;;;;40.15;23.08;;;16.00;99.90;;;;;;4142602;28;20034;-82
2021/06/06 03:59:25;;;;;;;32.78;20.05;;;15.90;99.90;;;;;;4144371;28;20053;-82
2021/06/06 04:01:26;;;;;;;33.45;19.70;;;15.90;99.90;;;;;;4127731;28;20038;-82
2021/06/06 04:03:27;;;;;;;29.73;19.38;;;15.80;99.90;;;;;;4141659;28;20034;-82
2021/06/06 04:05:28;;;;;;;40.78;22.83;;;15.80;99.90;;;;;;4124722;28;20073;-82
2021/06/06 04:07:28;;;;;;;37.35;21.65;;;15.80;99.90;;;;;;4144128;28;20026;-81
2021/06/06 04:09:29;;;;;;;33.53;20.35;;;15.80;99.90;;;;;;4127344;28;20394;-82
2021/06/06 04:11:30;;;;;;;29.85;19.92;;;15.80;99.90;;;;;;4126547;28;20038;-82
2021/06/06 04:13:33;;;;;;;34.45;19.45;;;15.80;99.90;;;;;;4146021;28;20429;-82
2021/06/06 04:15:34;;;;;;;35.42;21.10;;;15.80;99.90;;;;;;4139903;28;20460;-82
2021/06/06 04:17:35;;;;;;;36.17;21.95;;;15.80;99.90;;;;;;4128429;28;20581;-82
2021/06/06 04:19:36;;;;;;;40.45;22.60;;;15.80;99.90;;;;;;4128211;28;20042;-82
2021/06/06 04:21:37;;;;;;;38.03;22.20;;;15.80;99.90;;;;;;4124738;28;20069;-82
2021/06/06 04:23:38;;;;;;;33.97;20.95;;;15.80;99.90;;;;;;4144512;28;20038;-82
2021/06/06 04:25:39;;;;;;;34.83;22.07;;;15.80;99.90;;;;;;4125907;28;20399;-82
2021/06/06 04:27:40;;;;;;;39.92;22.60;;;15.80;99.90;;;;;;4141893;28;20784;-82
2021/06/06 04:29:41;;;;;;;35.28;22.17;;;15.90;99.90;;;;;;4142966;28;20030;-82
2021/06/06 04:31:42;;;;;;;39.85;21.90;;;15.80;99.90;;;;;;4127048;28;20538;-82
2021/06/06 04:33:43;;;;;;;39.95;23.63;;;15.80;99.90;;;;;;4142946;28;20034;-82
2021/06/06 04:35:44;;;;;;;42.15;23.42;;;15.80;99.90;;;;;;4139731;28;20495;-82
2021/06/06 04:37:45;;;;;;;42.95;24.02;;;15.80;99.90;;;;;;4132540;28;20503;-81
2021/06/06 04:39:46;;;;;;;39.55;23.02;;;15.80;99.90;;;;;;4141311;28;20034;-81
2021/06/06 04:41:46;;;;;;;41.42;24.67;;;15.80;99.90;;;;;;4142219;28;20034;-81
2021/06/06 04:43:47;;;;;;;40.80;22.45;;;15.80;99.90;;;;;;4144479;28;20034;-81
2021/06/06 04:45:48;;;;;;;35.65;21.60;;;15.80;99.90;;;;;;4142818;28;20381;-81
2021/06/06 04:47:49;;;;;;;36.05;20.90;;;15.80;99.90;;;;;;4125445;28;20066;-81
2021/06/06 04:49:50;;;;;;;37.47;21.75;;;15.80;99.90;;;;;;4127073;28;20038;-81
2021/06/06 04:51:51;;;;;;;37.00;22.48;;;15.80;99.90;;;;;;4130386;28;20447;-81
2021/06/06 04:53:53;;;;;;;34.25;20.63;;;15.90;99.90;;;;;;4127699;28;20038;-82
2021/06/06 04:55:56;;;;;;;40.50;22.10;;;15.90;99.90;;;;;;4144047;28;20045;-82
2021/06/06 04:57:57;;;;;;;40.45;24.55;;;15.90;99.90;;;;;;4143319;28;20136;-82
2021/06/06 04:59:58;;;;;;;39.95;23.27;;;16.00;99.90;;;;;;4123033;28;20042;-82
2021/06/06 05:01:58;;;;;;;36.65;21.45;;;15.90;99.90;;;;;;4135850;28;20038;-82
2021/06/06 05:03:59;;;;;;;38.42;21.40;;;16.00;99.90;;;;;;4129571;28;20057;-82
2021/06/06 05:05:59;;;;;;;36.42;20.70;;;16.00;99.90;;;;;;4130590;28;20041;-82
2021/06/06 05:08:01;;;;;;;43.38;24.73;;;16.00;99.90;;;;;;4125527;28;20035;-82
2021/06/06 05:10:07;;;;;;;34.75;20.33;;;16.00;99.90;;;;;;4125916;28;20106;-82
2021/06/06 05:12:09;;;;;;;37.20;20.85;;;16.00;99.90;;;;;;4143373;28;20490;-82
2021/06/06 05:14:10;;;;;;;36.33;21.02;;;16.00;99.90;;;;;;4146523;28;20502;-82
2021/06/06 05:16:11;;;;;;;37.40;23.27;;;16.10;99.90;;;;;;4144097;28;20068;-82
2021/06/06 05:18:12;;;;;;;40.72;22.60;;;16.10;99.90;;;;;;4125061;28;20057;-82
2021/06/06 05:20:14;;;;;;;33.30;21.10;;;16.10;99.90;;;;;;4129249;28;20162;-82
2021/06/06 05:22:15;;;;;;;36.33;21.70;;;16.10;99.90;;;;;;4143267;28;20049;-82
2021/06/06 05:24:16;;;;;;;45.45;24.05;;;16.10;99.90;;;;;;4145715;28;20659;-81
2021/06/06 05:26:17;;;;;;;38.17;22.25;;;16.20;99.90;;;;;;4126008;28;20117;-81
2021/06/06 05:28:21;;;;;;;36.88;22.30;;;16.20;99.90;;;;;;4137368;28;20042;-80
2021/06/06 05:30:27;;;;;;;39.08;23.42;;;16.20;99.90;;;;;;4140683;28;20042;-80
2021/06/06 05:32:27;;;;;;;50.72;26.73;;;16.30;99.90;;;;;;4145053;28;20121;-80
2021/06/06 05:34:28;;;;;;;49.85;26.52;;;16.20;99.90;;;;;;4144522;28;20045;-80
2021/06/06 05:36:28;;;;;;;44.28;25.63;;;16.20;99.90;;;;;;4142472;28;20044;-81
2021/06/06 05:38:32;;;;;;;56.30;29.63;;;16.20;99.90;;;;;;4139551;28;20034;-81
2021/06/06 05:40:35;;;;;;;54.85;29.73;;;16.20;99.90;;;;;;4142518;28;20033;-81
2021/06/06 05:42:35;;;;;;;53.53;27.42;;;16.20;99.90;;;;;;4124975;28;20048;-81
2021/06/06 05:44:37;;;;;;;53.20;27.38;;;16.10;99.90;;;;;;4127092;28;20054;-80
2021/06/06 05:46:37;;;;;;;51.08;26.35;;;16.20;99.90;;;;;;4143022;28;20030;-80
2021/06/06 05:48:38;;;;;;;64.70;32.65;;;16.10;99.90;;;;;;4141139;28;20041;-80
2021/06/06 05:50:43;;;;;;;66.07;33.97;;;16.00;99.90;;;;;;4122619;28;20042;-80
2021/06/06 05:52:45;;;;;;;52.10;29.02;;;16.00;99.90;;;;;;4141006;28;20057;-81
2021/06/06 05:54:47;;;;;;;55.10;29.67;;;16.00;99.90;;;;;;4128604;28;20449;-80
2021/06/06 05:56:47;;;;;;;52.33;27.98;;;16.00;99.90;;;;;;4140914;28;21308;-80
2021/06/06 05:58:49;;;;;;;50.03;27.67;;;16.00;99.90;;;;;;4141170;28;20060;-80
2021/06/06 06:00:51;;;;;;;50.05;26.55;;;16.00;99.90;;;;;;4141066;28;20034;-80
2021/06/06 06:02:52;;;;;;;54.35;27.52;;;16.00;99.90;;;;;;4141672;28;20602;-80
2021/06/06 06:04:52;;;;;;;56.08;29.88;;;16.00;99.90;;;;;;4142083;28;20042;-80
2021/06/06 06:06:53;;;;;;;58.67;29.98;;;16.00;99.90;;;;;;4123876;28;20081;-80
2021/06/06 06:08:55;;;;;;;59.85;30.45;;;16.00;99.90;;;;;;4139940;28;20033;-80
2021/06/06 06:10:57;;;;;;;57.80;30.23;;;16.00;99.90;;;;;;4135610;28;20045;-81
2021/06/06 06:12:57;;;;;;;53.30;27.80;;;16.00;99.90;;;;;;4139578;28;20463;-80
2021/06/06 06:14:58;;;;;;;52.13;27.30;;;15.90;99.90;;;;;;4122716;28;20031;-80
2021/06/06 06:16:59;;;;;;;55.17;30.23;;;16.00;99.90;;;;;;4127283;28;20410;-80
2021/06/06 06:19:01;;;;;;;58.80;29.92;;;16.00;99.90;;;;;;4139392;28;20030;-80
2021/06/06 06:21:03;;;;;;;;;;;15.90;99.90;;;;;;4142554;28;20060;-80
2021/06/06 06:23:05;;;;;;;53.95;28.85;;;15.90;99.90;;;;;;4138385;28;19921;-81
2021/06/06 06:25:07;;;;;;;49.35;27.27;;;15.90;99.90;;;;;;4139964;28;20130;-80
2021/06/06 06:27:08;;;;;;;44.58;23.98;;;15.90;99.90;;;;;;4121282;28;20046;-80
2021/06/06 06:29:09;;;;;;;63.05;32.28;;;15.90;99.90;;;;;;4127764;28;20301;-80
2021/06/06 06:31:10;;;;;;;54.33;28.15;;;15.90;99.90;;;;;;4140739;28;20548;-80
2021/06/06 06:33:11;;;;;;;52.60;27.38;;;15.90;99.90;;;;;;4144243;28;20089;-80
2021/06/06 06:35:12;;;;;;;51.63;29.15;;;15.90;99.90;;;;;;4142391;28;20038;-80
2021/06/06 06:37:13;;;;;;;47.15;26.55;;;16.00;99.90;;;;;;4138491;28;20048;-80
2021/06/06 06:39:14;;;;;;;45.13;27.20;;;15.90;99.90;;;;;;4143416;28;20540;-80
2021/06/06 06:41:15;;;;;;;41.30;23.85;;;16.00;99.90;;;;;;4147567;28;20038;-80
2021/06/06 06:43:15;;;;;;;42.92;26.50;;;16.00;99.90;;;;;;4142792;28;20034;-80
2021/06/06 06:45:21;;;;;;;47.58;26.35;;;16.00;99.90;;;;;;4140811;28;20034;-81
2021/06/06 06:47:22;;;;;;;44.67;25.50;;;16.00;99.90;;;;;;4140472;28;20387;-81
2021/06/06 06:49:22;;;;;;;38.65;22.92;;;16.00;99.90;;;;;;4145743;28;20037;-81
2021/06/06 06:51:25;;;;;;;37.75;23.15;;;16.00;99.90;;;;;;4126977;28;20438;-81
2021/06/06 06:53:27;;;;;;;40.00;22.90;;;16.00;99.90;;;;;;4133680;28;20113;-82
2021/06/06 06:55:28;;;;;;;45.67;24.97;;;16.00;99.90;;;;;;4130001;28;20041;-82
2021/06/06 06:57:28;;;;;;;44.25;25.35;;;16.00;99.90;;;;;;4144381;28;20030;-81
2021/06/06 06:59:29;;;;;;;41.05;25.08;;;16.10;99.90;;;;;;4145138;28;20068;-81
2021/06/06 07:01:30;;;;;;;43.60;26.25;;;16.00;99.90;;;;;;4140283;28;20045;-81
2021/06/06 07:03:34;;;;;;;42.85;24.75;;;16.00;99.90;;;;;;4124095;28;21067;-81
2021/06/06 07:05:35;;;;;;;40.33;24.73;;;16.00;99.90;;;;;;4132333;28;20022;-81
2021/06/06 07:07:36;;;;;;;41.00;24.83;;;15.90;99.90;;;;;;4126568;28;20113;-81
2021/06/06 07:09:37;;;;;;;47.38;27.35;;;16.00;99.90;;;;;;4141788;28;20117;-81
2021/06/06 07:11:38;;;;;;;47.97;28.27;;;15.90;99.90;;;;;;4127178;28;20035;-81
2021/06/06 07:13:39;;;;;;;43.25;25.27;;;16.00;99.90;;;;;;4142452;28;20354;-81
2021/06/06 07:15:41;;;;;;;44.22;26.42;;;15.90;99.90;;;;;;4147310;28;20034;-81
2021/06/06 07:17:43;;;;;;;41.10;24.20;;;16.00;99.90;;;;;;4130978;28;20030;-81
2021/06/06 07:19:43;;;;;;;40.40;23.80;;;16.00;99.90;;;;;;4134338;28;20034;-81
2021/06/06 07:21:44;;;;;;;42.22;25.30;;;16.00;99.90;;;;;;4141097;28;20411;-81
2021/06/06 07:23:46;;;;;;;50.40;27.60;;;16.00;99.90;;;;;;4126763;28;20038;-81
2021/06/06 07:25:47;;;;;;;45.47;26.98;;;16.00;99.90;;;;;;4143284;28;20084;-82
2021/06/06 07:27:49;;;;;;;46.67;26.10;;;16.10;99.90;;;;;;4141083;28;20060;-82
2021/06/06 07:29:53;;;;;;;42.77;25.93;;;16.10;99.90;;;;;;4145988;28;20127;-82
2021/06/06 07:31:55;;;;;;;40.20;25.27;;;16.10;99.90;;;;;;4145738;28;20335;-81
2021/06/06 07:33:56;;;;;;;43.15;25.17;;;16.10;99.90;;;;;;4142337;28;20164;-81
2021/06/06 07:35:57;;;;;;;44.08;25.65;;;16.10;99.90;;;;;;4130278;28;20042;-82
2021/06/06 07:37:58;;;;;;;48.00;27.00;;;16.10;99.90;;;;;;4130792;28;20133;-82
2021/06/06 07:39:59;;;;;;;58.42;28.83;;;16.10;99.90;;;;;;4143395;28;20335;-82
2021/06/06 07:42:03;;;;;;;45.15;26.15;;;16.10;99.90;;;;;;4138291;28;20088;-82
2021/06/06 07:44:04;;;;;;;49.90;26.63;;;16.10;99.90;;;;;;4124746;28;20588;-81
2021/06/06 07:46:05;;;;;;;47.88;25.38;;;16.10;99.90;;;;;;4117989;28;20038;-81
2021/06/06 07:48:06;;;;;;;44.65;24.52;;;16.10;99.90;;;;;;4123626;28;20045;-81
2021/06/06 07:50:10;;;;;;;49.40;27.63;;;16.10;99.90;;;;;;4134679;28;20061;-82
2021/06/06 07:52:11;;;;;;;49.22;27.50;;;16.10;99.90;;;;;;4119719;28;20380;-82
2021/06/06 07:54:12;;;;;;;48.67;28.20;;;16.10;99.90;;;;;;4139823;28;20030;-81
2021/06/06 07:56:15;;;;;;;45.00;26.15;;;16.10;99.90;;;;;;4130356;28;20207;-81
2021/06/06 07:58:26;;;;;;;46.72;26.15;;;16.10;99.90;;;;;;4143906;28;20033;-82
2021/06/06 08:00:48;;;;;;;46.67;26.15;;;16.20;99.90;;;;;;4129679;28;20041;-81
2021/06/06 08:02:49;;;;;;;49.08;27.00;;;16.10;99.90;;;;;;4128676;28;20345;-81
2021/06/06 08:04:50;;;;;;;44.47;25.02;;;16.20;99.90;;;;;;4130894;28;20036;-81
2021/06/06 08:06:52;;;;;;;47.97;26.25;;;16.10;99.90;;;;;;4129945;28;20113;-81
2021/06/06 08:08:53;;;;;;;52.38;27.73;;;16.20;99.90;;;;;;4138877;28;20030;-82
2021/06/06 08:10:57;;;;;;;47.08;24.67;;;16.20;99.90;;;;;;4127449;28;20157;-82
2021/06/06 08:12:57;;;;;;;51.95;28.23;;;16.20;99.90;;;;;;4123643;28;20107;-82
2021/06/06 08:14:58;;;;;;;49.28;25.77;;;16.20;99.90;;;;;;4138022;28;20037;-82
2021/06/06 08:16:59;;;;;;;48.95;27.95;;;16.20;99.90;;;;;;4125503;28;20042;-82
2021/06/06 08:18:59;;;;;;;40.03;23.02;;;16.30;99.90;;;;;;4142245;28;20064;-82
2021/06/06 08:21:25;;;;;;;52.55;27.45;;;16.30;99.90;;;;;;4126827;28;20113;-82
2021/06/06 08:23:26;;;;;;;55.40;30.55;;;16.30;99.90;;;;;;4141335;28;20073;-82
2021/06/06 08:25:28;;;;;;;49.47;26.33;;;16.30;99.90;;;;;;4125586;28;20027;-82
2021/06/06 08:27:29;;;;;;;51.35;25.88;;;16.30;99.90;;;;;;4142182;28;20049;-82
2021/06/06 08:29:30;;;;;;;54.10;28.75;;;16.30;99.90;;;;;;4143037;28;20034;-82
2021/06/06 08:31:33;;;;;;;46.35;24.27;;;16.30;99.90;;;;;;4142706;28;20018;-82
2021/06/06 08:33:35;;;;;;;47.22;23.05;;;16.40;99.90;;;;;;4141066;28;20026;-82
2021/06/06 08:35:36;;;;;;;50.40;27.17;;;16.40;99.90;;;;;;4123947;28;20030;-82
2021/06/06 08:37:37;;;;;;;50.42;25.73;;;16.40;99.90;;;;;;4138429;28;20034;-82
2021/06/06 08:39:37;;;;;;;40.22;22.20;;;16.40;99.90;;;;;;4125226;28;20038;-82
2021/06/06 08:41:57;;;;;;;49.13;24.42;;;16.40;99.90;;;;;;4125781;28;20038;-82
2021/06/06 08:44:11;;;;;;;41.38;21.67;;;16.50;99.90;;;;;;4126276;28;20030;-81
2021/06/06 08:46:13;;;;;;;36.85;20.52;;;16.50;99.90;;;;;;4114271;28;20129;-81
2021/06/06 08:48:16;;;;;;;45.70;23.85;;;16.50;99.90;;;;;;4139170;28;20049;-82
2021/06/06 08:50:24;;;;;;;42.45;22.70;;;16.50;99.90;;;;;;4141489;28;20439;-82
2021/06/06 08:52:41;;;;;;;34.53;18.55;;;16.60;99.90;;;;;;4139301;28;20387;-82
2021/06/06 08:54:53;;;;;;;42.20;20.52;;;16.60;99.90;;;;;;4143247;28;20029;-81
2021/06/06 08:57:17;;;;;;;43.83;21.30;;;16.60;99.90;;;;;;4126586;28;20026;-81
2021/06/06 08:59:22;;;;;;;33.85;19.63;;;16.60;99.90;;;;;;4124828;28;20125;-82
2021/06/06 09:01:40;;;;;;;44.95;22.10;;;16.60;99.90;;;;;;4123032;28;20049;-82
2021/06/06 09:03:42;;;;;;;35.78;19.52;;;16.70;99.90;;;;;;4143235;28;20030;-82
2021/06/06 09:05:45;;;;;;;43.28;20.88;;;16.70;99.90;;;;;;4123828;28;20475;-82
2021/06/06 09:07:48;;;;;;;45.55;21.55;;;16.70;99.90;;;;;;4137344;28;20065;-81
2021/06/06 09:09:50;;;;;;;42.05;22.08;;;16.80;99.90;;;;;;4123016;28;20038;-81
2021/06/06 09:11:52;;;;;;;47.00;23.88;;;16.80;99.90;;;;;;4126511;28;20037;-81
2021/06/06 09:13:54;;;;;;;41.13;22.35;;;16.70;99.90;;;;;;4144020;28;20064;-82
2021/06/06 09:16:07;;;;;;;37.15;20.25;;;16.70;99.90;;;;;;4144769;28;20040;-82
2021/06/06 09:18:24;;;;;;;37.05;19.83;;;16.80;99.90;;;;;;4146734;28;20080;-81
2021/06/06 09:20:42;;;;;;;33.92;19.30;;;16.80;99.90;;;;;;4124600;28;20043;-82
2021/06/06 09:22:44;;;;;;;38.38;19.02;;;16.90;99.90;;;;;;4126741;28;20040;-82
2021/06/06 09:24:48;;;;;;;34.88;20.55;;;16.90;99.90;;;;;;4131333;28;20587;-82
2021/06/06 09:26:49;;;;;;;36.88;19.30;;;17.00;99.90;;;;;;4129325;28;20030;-82
2021/06/06 09:29:29;;;;;;;36.70;20.55;;;17.00;99.90;;;;;;4127491;28;20045;-82
2021/06/06 09:31:31;;;;;;;37.30;20.05;;;17.00;99.90;;;;;;4062148;29;20091;-82
2021/06/06 09:33:58;;;;;;;32.25;17.63;;;16.90;99.90;;;;;;4065437;29;20072;-81
2021/06/06 09:36:03;;;;;;;31.00;17.25;;;16.90;99.90;;;;;;4072000;28;20075;-81
2021/06/06 09:38:21;;;;;;;30.90;18.20;;;17.00;99.90;;;;;;4123692;28;20057;-82
2021/06/06 09:40:33;;;;;;;30.27;17.35;;;17.00;99.90;;;;;;4139350;28;20181;-82
2021/06/06 09:42:46;;;;;;;29.50;16.30;;;17.00;99.90;;;;;;4125793;28;21103;-81
2021/06/06 09:45:02;;;;;;;30.33;16.90;;;17.10;99.90;;;;;;4144778;28;20045;-81
2021/06/06 09:47:05;;;;;;;29.63;16.45;;;17.00;99.90;;;;;;4142992;28;20072;-81
2021/06/06 09:49:25;;;;;;;33.67;18.10;;;17.10;99.90;;;;;;4126515;28;20049;-81
2021/06/06 09:51:28;;;;;;;30.67;16.88;;;17.10;99.90;;;;;;4140814;28;20095;-81
2021/06/06 09:53:31;;;;;;;39.05;19.35;;;17.20;99.90;;;;;;4143554;28;20395;-81
2021/06/06 09:55:33;;;;;;;37.40;20.65;;;17.20;99.90;;;;;;4126776;28;20089;-81
2021/06/06 09:57:38;;;;;;;33.10;18.30;;;17.10;99.90;;;;;;4143180;28;20041;-82
2021/06/06 09:59:38;;;;;;;38.72;21.15;;;17.10;99.90;;;;;;4146842;28;20036;-82
2021/06/06 10:01:54;;;;;;;35.22;20.35;;;17.00;99.90;;;;;;4125021;28;20113;-82
2021/06/06 10:04:02;;;;;;;34.10;19.15;;;17.00;99.90;;;;;;4129680;28;20076;-82
2021/06/06 10:06:31;;;;;;;30.15;18.70;;;17.10;99.90;;;;;;4142634;28;20401;-82
2021/06/06 10:08:31;;;;;;;33.60;18.73;;;17.10;99.90;;;;;;4134571;28;20536;-81
2021/06/06 10:10:43;;;;;;;35.35;20.02;;;17.10;99.90;;;;;;4142776;28;20065;-86
2021/06/06 10:12:47;;;;;;;34.13;19.63;;;17.10;99.90;;;;;;4141521;28;20383;-82
2021/06/06 10:14:56;;;;;;;30.65;17.42;;;17.10;99.90;;;;;;4148456;28;20072;-81
2021/06/06 10:17:02;;;;;;;36.97;19.95;;;17.10;99.90;;;;;;4147153;28;20022;-81
2021/06/06 10:19:20;;;;;;;35.50;19.20;;;17.10;99.90;;;;;;4135566;28;20042;-81
2021/06/06 10:21:29;;;;;;;32.10;17.90;;;17.20;99.90;;;;;;4132601;28;20050;-81
2021/06/06 10:23:37;;;;;;;33.10;18.98;;;17.20;99.90;;;;;;4142222;28;20068;-81
2021/06/06 10:26:01;;;;;;;34.42;18.15;;;17.10;99.90;;;;;;4146312;28;20038;-82
2021/06/06 10:28:06;;;;;;;36.85;18.98;;;17.20;99.90;;;;;;4138437;28;20026;-81
2021/06/06 10:30:41;;;;;;;30.88;18.75;;;17.20;99.90;;;;;;4143494;28;20038;-81
2021/06/06 10:32:45;;;;;;;37.60;21.15;;;17.20;99.90;;;;;;4126541;28;20058;-81